createdAt,value
2022-08-30T00:00:00.000Z,0.0
2022-08-30T00:02:00.000Z,0.0
2022-08-30T00:04:00.000Z,0.0
2022-08-30T00:06:00.000Z,0.0
2022-08-30T00:08:00.000Z,0.0
2022-08-30T00:10:00.000Z,0.0
2022-08-30T00:12:00.000Z,0.0
2022-08-30T00:14:00.000Z,0.0
2022-08-30T00:16:00.000Z,0.0
2022-08-30T00:18:00.000Z,0.0
2022-08-30T00:20:00.000Z,0.0
2022-08-30T00:22:00.000Z,0.0
2022-08-30T00:24:00.000Z,0.0
2022-08-30T00:26:00.000Z,0.0
2022-08-30T00:28:00.000Z,0.0
2022-08-30T00:30:00.000Z,0.0
2022-08-30T00:32:00.000Z,0.0
2022-08-30T00:34:00.000Z,0.0
2022-08-30T00:36:00.000Z,0.0
2022-08-30T00:38:00.000Z,0.0
2022-08-30T00:40:00.000Z,0.0
2022-08-30T00:42:00.000Z,0.0
2022-08-30T00:44:00.000Z,0.0
2022-08-30T00:46:00.000Z,0.0
2022-08-30T00:48:00.000Z,0.0
2022-08-30T00:50:00.000Z,0.0
2022-08-30T00:52:00.000Z,0.0
2022-08-30T00:54:00.000Z,0.0
2022-08-30T00:56:00.000Z,0.0
2022-08-30T00:58:00.000Z,0.0
2022-08-30T01:00:00.000Z,0.0
2022-08-30T01:02:00.000Z,0.0
2022-08-30T01:04:00.000Z,0.0
2022-08-30T01:06:00.000Z,0.0
2022-08-30T01:08:00.000Z,0.0
2022-08-30T01:10:00.000Z,0.0
2022-08-30T01:12:00.000Z,0.0
2022-08-30T01:14:00.000Z,0.0
2022-08-30T01:16:00.000Z,0.0
2022-08-30T01:18:00.000Z,0.0
2022-08-30T01:20:00.000Z,0.0
2022-08-30T01:22:00.000Z,0.0
2022-08-30T01:24:00.000Z,0.0
2022-08-30T01:26:00.000Z,0.0
2022-08-30T01:28:00.000Z,0.0
2022-08-30T01:30:00.000Z,0.0
2022-08-30T01:32:00.000Z,0.0
2022-08-30T01:34:00.000Z,0.0
2022-08-30T01:36:00.000Z,0.0
2022-08-30T01:38:00.000Z,0.0
2022-08-30T01:40:00.000Z,0.0
2022-08-30T01:42:00.000Z,0.0
2022-08-30T01:44:00.000Z,0.0
2022-08-30T01:46:00.000Z,0.0
2022-08-30T01:48:00.000Z,0.0
2022-08-30T01:50:00.000Z,0.0
2022-08-30T01:52:00.000Z,0.0
2022-08-30T01:54:00.000Z,0.0
2022-08-30T01:56:00.000Z,0.0
2022-08-30T01:58:00.000Z,0.0
2022-08-30T02:00:00.000Z,0.0
2022-08-30T02:02:00.000Z,0.0
2022-08-30T02:04:00.000Z,0.0
2022-08-30T02:06:00.000Z,0.0
2022-08-30T02:08:00.000Z,0.0
2022-08-30T02:10:00.000Z,0.0
2022-08-30T02:12:00.000Z,0.0
2022-08-30T02:14:00.000Z,0.0
2022-08-30T02:16:00.000Z,0.0
2022-08-30T02:18:00.000Z,0.0
2022-08-30T02:20:00.000Z,0.0
2022-08-30T02:22:00.000Z,0.0
2022-08-30T02:24:00.000Z,0.0
2022-08-30T02:26:00.000Z,0.0
2022-08-30T02:28:00.000Z,0.0
2022-08-30T02:30:00.000Z,0.0
2022-08-30T02:32:00.000Z,0.0
2022-08-30T02:34:00.000Z,0.0
2022-08-30T02:36:00.000Z,0.0
2022-08-30T02:38:00.000Z,0.0
2022-08-30T02:40:00.000Z,0.0
2022-08-30T02:42:00.000Z,0.0
2022-08-30T02:44:00.000Z,0.0
2022-08-30T02:46:00.000Z,0.0
2022-08-30T02:48:00.000Z,0.0
2022-08-30T02:50:00.000Z,0.0
2022-08-30T02:52:00.000Z,0.0
2022-08-30T02:54:00.000Z,0.0
2022-08-30T02:56:00.000Z,0.0
2022-08-30T02:58:00.000Z,0.0
2022-08-30T03:00:00.000Z,0.0
2022-08-30T03:02:00.000Z,0.0
2022-08-30T03:04:00.000Z,0.0
2022-08-30T03:06:00.000Z,0.0
2022-08-30T03:08:00.000Z,0.0
2022-08-30T03:10:00.000Z,0.0
2022-08-30T03:12:00.000Z,0.0
2022-08-30T03:14:00.000Z,0.0
2022-08-30T03:16:00.000Z,0.0
2022-08-30T03:18:00.000Z,0.0
2022-08-30T03:20:00.000Z,0.0
2022-08-30T03:22:00.000Z,0.0
2022-08-30T03:24:00.000Z,0.0
2022-08-30T03:26:00.000Z,0.0
2022-08-30T03:28:00.000Z,0.0
2022-08-30T03:30:00.000Z,0.0
2022-08-30T03:32:00.000Z,0.0
2022-08-30T03:34:00.000Z,0.0
2022-08-30T03:36:00.000Z,0.0
2022-08-30T03:38:00.000Z,0.0
2022-08-30T03:40:00.000Z,0.0
2022-08-30T03:42:00.000Z,0.0
2022-08-30T03:44:00.000Z,0.0
2022-08-30T03:46:00.000Z,0.0
2022-08-30T03:48:00.000Z,0.0
2022-08-30T03:50:00.000Z,0.0
2022-08-30T03:52:00.000Z,0.0
2022-08-30T03:54:00.000Z,0.0
2022-08-30T03:56:00.000Z,0.0
2022-08-30T03:58:00.000Z,0.0
2022-08-30T04:00:00.000Z,0.0
2022-08-30T04:02:00.000Z,0.0
2022-08-30T04:04:00.000Z,0.0
2022-08-30T04:06:00.000Z,0.0
2022-08-30T04:08:00.000Z,0.0
2022-08-30T04:10:00.000Z,0.55
2022-08-30T04:12:00.000Z,0.71
2022-08-30T04:14:00.000Z,0.94
2022-08-30T04:16:00.000Z,1.34
2022-08-30T04:18:00.000Z,1.65
2022-08-30T04:20:00.000Z,1.97
2022-08-30T04:22:00.000Z,2.21
2022-08-30T04:24:00.000Z,2.68
2022-08-30T04:26:00.000Z,3.16
2022-08-30T04:28:00.000Z,3.47
2022-08-30T04:30:00.000Z,3.63
2022-08-30T04:32:00.000Z,3.63
2022-08-30T04:34:00.000Z,3.71
2022-08-30T04:36:00.000Z,4.34
2022-08-30T04:38:00.000Z,5.68
2022-08-30T04:40:00.000Z,7.9
2022-08-30T04:42:00.000Z,9.63
2022-08-30T04:44:00.000Z,10.9
2022-08-30T04:46:00.000Z,12.08
2022-08-30T04:48:00.000Z,13.35
2022-08-30T04:50:00.000Z,14.22
2022-08-30T04:52:00.000Z,15.4
2022-08-30T04:54:00.000Z,17.06
2022-08-30T04:56:00.000Z,19.51
2022-08-30T04:58:00.000Z,20.85
2022-08-30T05:00:00.000Z,22.91
2022-08-30T05:02:00.000Z,24.33
2022-08-30T05:04:00.000Z,25.75
2022-08-30T05:06:00.000Z,26.7
2022-08-30T05:08:00.000Z,27.49
2022-08-30T05:10:00.000Z,28.51
2022-08-30T05:12:00.000Z,29.15
2022-08-30T05:14:00.000Z,29.78
2022-08-30T05:16:00.000Z,30.96
2022-08-30T05:18:00.000Z,32.62
2022-08-30T05:20:00.000Z,35.15
2022-08-30T05:22:00.000Z,37.99
2022-08-30T05:24:00.000Z,39.1
2022-08-30T05:26:00.000Z,40.52
2022-08-30T05:28:00.000Z,42.1
2022-08-30T05:30:00.000Z,42.66
2022-08-30T05:32:00.000Z,42.81
2022-08-30T05:34:00.000Z,44.08
2022-08-30T05:36:00.000Z,46.84
2022-08-30T05:38:00.000Z,49.29
2022-08-30T05:40:00.000Z,51.5
2022-08-30T05:42:00.000Z,54.27
2022-08-30T05:44:00.000Z,56.48
2022-08-30T05:46:00.000Z,59.96
2022-08-30T05:48:00.000Z,61.54
2022-08-30T05:50:00.000Z,62.17
2022-08-30T05:52:00.000Z,60.43
2022-08-30T05:54:00.000Z,58.77
2022-08-30T05:56:00.000Z,58.85
2022-08-30T05:58:00.000Z,59.09
2022-08-30T06:00:00.000Z,61.3
2022-08-30T06:02:00.000Z,67.54
2022-08-30T06:04:00.000Z,74.1
2022-08-30T06:06:00.000Z,82.87
2022-08-30T06:08:00.000Z,91.4
2022-08-30T06:10:00.000Z,97.4
2022-08-30T06:12:00.000Z,101.27
2022-08-30T06:14:00.000Z,102.14
2022-08-30T06:16:00.000Z,101.91
2022-08-30T06:18:00.000Z,97.64
2022-08-30T06:20:00.000Z,93.69
2022-08-30T06:22:00.000Z,92.58
2022-08-30T06:24:00.000Z,95.82
2022-08-30T06:26:00.000Z,98.51
2022-08-30T06:28:00.000Z,99.54
2022-08-30T06:30:00.000Z,98.27
2022-08-30T06:32:00.000Z,97.56
2022-08-30T06:34:00.000Z,94.72
2022-08-30T06:36:00.000Z,93.3
2022-08-30T06:38:00.000Z,93.53
2022-08-30T06:40:00.000Z,97.32
2022-08-30T06:42:00.000Z,106.01
2022-08-30T06:44:00.000Z,117.71
2022-08-30T06:46:00.000Z,125.69
2022-08-30T06:48:00.000Z,123.47
2022-08-30T06:50:00.000Z,110.83
2022-08-30T06:52:00.000Z,104.59
2022-08-30T06:54:00.000Z,112.89
2022-08-30T06:56:00.000Z,116.44
2022-08-30T06:58:00.000Z,119.6
2022-08-30T07:00:00.000Z,137.3
2022-08-30T07:02:00.000Z,166.53
2022-08-30T07:04:00.000Z,183.36
2022-08-30T07:06:00.000Z,318.13
2022-08-30T07:08:00.000Z,174.11
2022-08-30T07:10:00.000Z,192.36
2022-08-30T07:12:00.000Z,333.62
2022-08-30T07:14:00.000Z,158.08
2022-08-30T07:16:00.000Z,157.6
2022-08-30T07:18:00.000Z,189.6
2022-08-30T07:20:00.000Z,202.71
2022-08-30T07:22:00.000Z,228.7
2022-08-30T07:24:00.000Z,297.91
2022-08-30T07:26:00.000Z,291.27
2022-08-30T07:28:00.000Z,212.9
2022-08-30T07:30:00.000Z,195.44
2022-08-30T07:32:00.000Z,161.47
2022-08-30T07:34:00.000Z,139.91
2022-08-30T07:36:00.000Z,127.03
2022-08-30T07:38:00.000Z,134.53
2022-08-30T07:40:00.000Z,181.62
2022-08-30T07:42:00.000Z,218.99
2022-08-30T07:44:00.000Z,209.11
2022-08-30T07:46:00.000Z,186.83
2022-08-30T07:48:00.000Z,158.47
2022-08-30T07:50:00.000Z,171.03
2022-08-30T07:52:00.000Z,190.55
2022-08-30T07:54:00.000Z,196.08
2022-08-30T07:56:00.000Z,212.98
2022-08-30T07:58:00.000Z,207.37
2022-08-30T08:00:00.000Z,163.37
2022-08-30T08:02:00.000Z,150.1
2022-08-30T08:04:00.000Z,163.13
2022-08-30T08:06:00.000Z,170.8
2022-08-30T08:08:00.000Z,158.47
2022-08-30T08:10:00.000Z,174.11
2022-08-30T08:12:00.000Z,193.63
2022-08-30T08:14:00.000Z,188.89
2022-08-30T08:16:00.000Z,178.38
2022-08-30T08:18:00.000Z,180.83
2022-08-30T08:20:00.000Z,193.07
2022-08-30T08:22:00.000Z,221.44
2022-08-30T08:24:00.000Z,231.63
2022-08-30T08:26:00.000Z,228.31
2022-08-30T08:28:00.000Z,213.38
2022-08-30T08:30:00.000Z,218.83
2022-08-30T08:32:00.000Z,214.72
2022-08-30T08:36:00.000Z,160.29
2022-08-30T08:38:00.000Z,211.48
2022-08-30T08:40:00.000Z,248.45
2022-08-30T08:42:00.000Z,286.93
2022-08-30T08:44:00.000Z,354.95
2022-08-30T08:46:00.000Z,355.19
2022-08-30T08:48:00.000Z,345.71
2022-08-30T08:50:00.000Z,281.32
2022-08-30T08:52:00.000Z,299.33
2022-08-30T08:54:00.000Z,257.54
2022-08-30T08:56:00.000Z,233.6
2022-08-30T08:58:00.000Z,248.85
2022-08-30T09:00:00.000Z,256.35
2022-08-30T09:02:00.000Z,231.47
2022-08-30T09:04:00.000Z,181.54
2022-08-30T09:06:00.000Z,168.82
2022-08-30T09:08:00.000Z,173.8
2022-08-30T09:10:00.000Z,197.1
2022-08-30T09:12:00.000Z,286.38
2022-08-30T09:14:00.000Z,254.85
2022-08-30T09:16:00.000Z,341.6
2022-08-30T09:18:00.000Z,281.4
2022-08-30T09:20:00.000Z,241.27
2022-08-30T09:22:00.000Z,248.14
2022-08-30T09:24:00.000Z,256.12
2022-08-30T09:26:00.000Z,299.25
2022-08-30T09:28:00.000Z,237.16
2022-08-30T09:30:00.000Z,226.81
2022-08-30T09:32:00.000Z,208.56
2022-08-30T09:34:00.000Z,211.8
2022-08-30T09:36:00.000Z,220.01
2022-08-30T09:38:00.000Z,207.14
2022-08-30T09:40:00.000Z,206.98
2022-08-30T09:42:00.000Z,203.58
2022-08-30T09:44:00.000Z,203.9
2022-08-30T09:46:00.000Z,209.82
2022-08-30T09:48:00.000Z,212.82
2022-08-30T09:50:00.000Z,215.83
2022-08-30T09:52:00.000Z,223.02
2022-08-30T09:56:00.000Z,227.99
2022-08-30T09:58:00.000Z,229.97
2022-08-30T10:00:00.000Z,238.66
2022-08-30T10:02:00.000Z,235.58
2022-08-30T10:04:00.000Z,231.94
2022-08-30T10:06:00.000Z,235.58
2022-08-30T10:08:00.000Z,241.19
2022-08-30T10:10:00.000Z,255.96
2022-08-30T10:12:00.000Z,268.92
2022-08-30T10:14:00.000Z,277.37
2022-08-30T10:16:00.000Z,321.21
2022-08-30T10:18:00.000Z,324.53
2022-08-30T10:20:00.000Z,396.5
2022-08-30T10:22:00.000Z,396.58
2022-08-30T10:24:00.000Z,454.57
2022-08-30T10:26:00.000Z,725.23
2022-08-30T10:28:00.000Z,460.49
2022-08-30T10:30:00.000Z,502.29
2022-08-30T10:32:00.000Z,460.26
2022-08-30T10:34:00.000Z,442.96
2022-08-30T10:36:00.000Z,511.77
2022-08-30T10:38:00.000Z,311.26
2022-08-30T10:40:00.000Z,348.79
2022-08-30T10:42:00.000Z,678.54
2022-08-30T10:44:00.000Z,224.04
2022-08-30T10:46:00.000Z,203.19
2022-08-30T10:48:00.000Z,212.75
2022-08-30T10:50:00.000Z,246.56
2022-08-30T10:52:00.000Z,237.32
2022-08-30T10:54:00.000Z,221.91
2022-08-30T10:56:00.000Z,210.22
2022-08-30T10:58:00.000Z,204.77
2022-08-30T11:00:00.000Z,187.31
2022-08-30T11:02:00.000Z,177.67
2022-08-30T11:04:00.000Z,172.38
2022-08-30T11:06:00.000Z,158.79
2022-08-30T11:08:00.000Z,150.97
2022-08-30T11:10:00.000Z,150.89
2022-08-30T11:12:00.000Z,167.0
2022-08-30T11:14:00.000Z,182.49
2022-08-30T11:16:00.000Z,206.58
2022-08-30T11:18:00.000Z,223.1
2022-08-30T11:20:00.000Z,242.53
2022-08-30T11:22:00.000Z,259.51
2022-08-30T11:24:00.000Z,288.11
2022-08-30T11:26:00.000Z,312.84
2022-08-30T11:28:00.000Z,339.39
2022-08-30T11:30:00.000Z,386.94
2022-08-30T11:32:00.000Z,295.86
2022-08-30T11:34:00.000Z,269.71
2022-08-30T11:36:00.000Z,311.81
2022-08-30T11:38:00.000Z,419.97
2022-08-30T11:40:00.000Z,289.54
2022-08-30T11:42:00.000Z,276.34
2022-08-30T11:44:00.000Z,287.96
2022-08-30T11:46:00.000Z,264.41
2022-08-30T11:48:00.000Z,292.77
2022-08-30T11:50:00.000Z,240.55
2022-08-30T11:52:00.000Z,135.32
2022-08-30T11:54:00.000Z,107.67
2022-08-30T11:56:00.000Z,112.49
2022-08-30T11:58:00.000Z,127.19
2022-08-30T12:00:00.000Z,138.8
2022-08-30T12:02:00.000Z,136.83
2022-08-30T12:04:00.000Z,148.91
2022-08-30T12:06:00.000Z,165.27
2022-08-30T12:08:00.000Z,216.14
2022-08-30T12:10:00.000Z,525.12
2022-08-30T12:12:00.000Z,818.37
2022-08-30T12:14:00.000Z,776.5
2022-08-30T12:16:00.000Z,825.01
2022-08-30T12:18:00.000Z,867.19
2022-08-30T12:20:00.000Z,469.26
2022-08-30T12:22:00.000Z,852.03
2022-08-30T12:24:00.000Z,842.15
2022-08-30T12:26:00.000Z,844.28
2022-08-30T12:28:00.000Z,853.21
2022-08-30T12:30:00.000Z,706.03
2022-08-30T12:32:00.000Z,388.92
2022-08-30T12:34:00.000Z,834.57
2022-08-30T12:36:00.000Z,370.35
2022-08-30T12:38:00.000Z,787.24
2022-08-30T12:40:00.000Z,792.93
2022-08-30T12:42:00.000Z,336.78
2022-08-30T12:44:00.000Z,739.21
2022-08-30T12:46:00.000Z,697.81
2022-08-30T12:48:00.000Z,306.36
2022-08-30T12:50:00.000Z,687.78
2022-08-30T12:52:00.000Z,347.84
2022-08-30T12:54:00.000Z,415.38
2022-08-30T12:56:00.000Z,482.46
2022-08-30T12:58:00.000Z,386.79
2022-08-30T13:00:00.000Z,361.9
2022-08-30T13:02:00.000Z,607.44
2022-08-30T13:04:00.000Z,639.59
2022-08-30T13:06:00.000Z,631.37
2022-08-30T13:08:00.000Z,629.08
2022-08-30T13:10:00.000Z,645.12
2022-08-30T13:12:00.000Z,681.54
2022-08-30T13:14:00.000Z,395.63
2022-08-30T13:16:00.000Z,240.95
2022-08-30T13:18:00.000Z,239.53
2022-08-30T13:20:00.000Z,270.26
2022-08-30T13:22:00.000Z,746.24
2022-08-30T13:24:00.000Z,723.57
2022-08-30T13:26:00.000Z,703.03
2022-08-30T13:28:00.000Z,702.32
2022-08-30T13:30:00.000Z,669.14
2022-08-30T13:32:00.000Z,167.72
2022-08-30T13:34:00.000Z,469.5
2022-08-30T13:36:00.000Z,587.13
2022-08-30T13:38:00.000Z,581.21
2022-08-30T13:40:00.000Z,575.76
2022-08-30T13:44:00.000Z,575.92
2022-08-30T13:46:00.000Z,580.89
2022-08-30T13:48:00.000Z,593.53
2022-08-30T13:50:00.000Z,381.49
2022-08-30T13:52:00.000Z,187.15
2022-08-30T13:54:00.000Z,240.87
2022-08-30T13:56:00.000Z,612.89
2022-08-30T13:58:00.000Z,633.27
2022-08-30T14:00:00.000Z,622.84
2022-08-30T14:02:00.000Z,497.07
2022-08-30T14:04:00.000Z,227.91
2022-08-30T14:06:00.000Z,249.8
2022-08-30T14:08:00.000Z,564.46
2022-08-30T14:12:00.000Z,542.18
2022-08-30T14:14:00.000Z,476.53
2022-08-30T14:16:00.000Z,280.13
2022-08-30T14:18:00.000Z,249.48
2022-08-30T14:20:00.000Z,270.42
2022-08-30T14:22:00.000Z,259.36
2022-08-30T14:24:00.000Z,229.42
2022-08-30T14:26:00.000Z,207.06
2022-08-30T14:28:00.000Z,333.78
2022-08-30T14:30:00.000Z,516.19
2022-08-30T14:32:00.000Z,197.34
2022-08-30T14:34:00.000Z,290.17
2022-08-30T14:36:00.000Z,458.05
2022-08-30T14:38:00.000Z,285.11
2022-08-30T14:40:00.000Z,521.25
2022-08-30T14:42:00.000Z,525.35
2022-08-30T14:44:00.000Z,548.58
2022-08-30T14:46:00.000Z,434.5
2022-08-30T14:48:00.000Z,327.38
2022-08-30T14:50:00.000Z,485.14
2022-08-30T14:52:00.000Z,237.39
2022-08-30T14:54:00.000Z,221.44
2022-08-30T14:56:00.000Z,220.33
2022-08-30T14:58:00.000Z,204.92
2022-08-30T15:00:00.000Z,213.06
2022-08-30T15:02:00.000Z,226.81
2022-08-30T15:04:00.000Z,237.71
2022-08-30T15:06:00.000Z,224.75
2022-08-30T15:08:00.000Z,221.44
2022-08-30T15:10:00.000Z,200.66
2022-08-30T15:12:00.000Z,176.17
2022-08-30T15:14:00.000Z,169.22
2022-08-30T15:16:00.000Z,231.63
2022-08-30T15:18:00.000Z,144.73
2022-08-30T15:20:00.000Z,134.69
2022-08-30T15:22:00.000Z,196.71
2022-08-30T15:24:00.000Z,179.8
2022-08-30T15:26:00.000Z,348.47
2022-08-30T15:28:00.000Z,336.7
2022-08-30T15:30:00.000Z,324.06
2022-08-30T15:32:00.000Z,305.1
2022-08-30T15:34:00.000Z,298.54
2022-08-30T15:36:00.000Z,286.22
2022-08-30T15:38:00.000Z,273.02
2022-08-30T15:40:00.000Z,243.95
2022-08-30T15:42:00.000Z,226.41
2022-08-30T15:44:00.000Z,247.66
2022-08-30T15:46:00.000Z,236.21
2022-08-30T15:48:00.000Z,192.13
2022-08-30T15:50:00.000Z,154.05
2022-08-30T15:52:00.000Z,135.01
2022-08-30T15:54:00.000Z,216.38
2022-08-30T15:56:00.000Z,208.72
2022-08-30T15:58:00.000Z,202.48
2022-08-30T16:00:00.000Z,201.61
2022-08-30T16:02:00.000Z,125.37
2022-08-30T16:04:00.000Z,191.49
2022-08-30T16:06:00.000Z,209.11
2022-08-30T16:08:00.000Z,197.97
2022-08-30T16:10:00.000Z,204.92
2022-08-30T16:12:00.000Z,206.66
2022-08-30T16:14:00.000Z,200.97
2022-08-30T16:16:00.000Z,198.45
2022-08-30T16:18:00.000Z,187.15
2022-08-30T16:20:00.000Z,168.98
2022-08-30T16:22:00.000Z,151.68
2022-08-30T16:24:00.000Z,132.95
2022-08-30T16:26:00.000Z,121.03
2022-08-30T16:28:00.000Z,124.42
2022-08-30T16:30:00.000Z,125.92
2022-08-30T16:32:00.000Z,119.29
2022-08-30T16:34:00.000Z,121.1
2022-08-30T16:36:00.000Z,110.91
2022-08-30T16:38:00.000Z,105.7
2022-08-30T16:40:00.000Z,96.85
2022-08-30T16:42:00.000Z,90.21
2022-08-30T16:44:00.000Z,87.84
2022-08-30T16:46:00.000Z,83.18
2022-08-30T16:48:00.000Z,78.05
2022-08-30T16:50:00.000Z,72.36
2022-08-30T16:52:00.000Z,67.54
2022-08-30T16:54:00.000Z,48.9
2022-08-30T16:56:00.000Z,44.31
2022-08-30T16:58:00.000Z,42.97
2022-08-30T17:00:00.000Z,42.02
2022-08-30T17:02:00.000Z,41.71
2022-08-30T17:04:00.000Z,40.84
2022-08-30T17:06:00.000Z,40.05
2022-08-30T17:08:00.000Z,39.26
2022-08-30T17:10:00.000Z,37.92
2022-08-30T17:12:00.000Z,36.89
2022-08-30T17:14:00.000Z,35.86
2022-08-30T17:16:00.000Z,35.07
2022-08-30T17:18:00.000Z,34.36
2022-08-30T17:20:00.000Z,32.86
2022-08-30T17:22:00.000Z,31.6
2022-08-30T17:24:00.000Z,30.25
2022-08-30T17:26:00.000Z,29.78
2022-08-30T17:28:00.000Z,29.38
2022-08-30T17:30:00.000Z,29.15
2022-08-30T17:32:00.000Z,29.23
2022-08-30T17:34:00.000Z,27.88
2022-08-30T17:36:00.000Z,24.8
2022-08-30T17:38:00.000Z,22.67
2022-08-30T17:40:00.000Z,21.01
2022-08-30T17:42:00.000Z,19.82
2022-08-30T17:44:00.000Z,18.64
2022-08-30T17:46:00.000Z,17.38
2022-08-30T17:48:00.000Z,16.74
2022-08-30T17:50:00.000Z,14.53
2022-08-30T17:52:00.000Z,13.35
2022-08-30T17:54:00.000Z,12.64
2022-08-30T17:56:00.000Z,11.37
2022-08-30T17:58:00.000Z,10.11
2022-08-30T18:00:00.000Z,9.0
2022-08-30T18:02:00.000Z,7.74
2022-08-30T18:04:00.000Z,6.79
2022-08-30T18:06:00.000Z,5.84
2022-08-30T18:08:00.000Z,5.13
2022-08-30T18:10:00.000Z,4.42
2022-08-30T18:12:00.000Z,3.79
2022-08-30T18:14:00.000Z,3.23
2022-08-30T18:16:00.000Z,2.76
2022-08-30T18:18:00.000Z,2.44
2022-08-30T18:20:00.000Z,2.05
2022-08-30T18:22:00.000Z,1.73
2022-08-30T18:24:00.000Z,1.42
2022-08-30T18:26:00.000Z,1.1
2022-08-30T18:28:00.000Z,0.79
2022-08-30T18:30:00.000Z,0.63
2022-08-30T18:32:00.000Z,0.47
2022-08-30T18:34:00.000Z,0.31
2022-08-30T18:36:00.000Z,0.23
2022-08-30T18:38:00.000Z,0.0
2022-08-30T18:40:00.000Z,0.0
2022-08-30T18:42:00.000Z,0.0
2022-08-30T18:44:00.000Z,0.0
2022-08-30T18:46:00.000Z,0.0
2022-08-30T18:48:00.000Z,0.0
2022-08-30T18:50:00.000Z,0.0
2022-08-30T18:52:00.000Z,0.0
2022-08-30T18:54:00.000Z,0.0
2022-08-30T18:56:00.000Z,0.0
2022-08-30T18:58:00.000Z,0.0
2022-08-30T19:00:00.000Z,0.0
2022-08-30T19:02:00.000Z,0.0
2022-08-30T19:04:00.000Z,0.0
2022-08-30T19:06:00.000Z,0.0
2022-08-30T19:08:00.000Z,0.0
2022-08-30T19:10:00.000Z,0.0
2022-08-30T19:12:00.000Z,0.0
2022-08-30T19:14:00.000Z,0.0
2022-08-30T19:16:00.000Z,0.0
2022-08-30T19:18:00.000Z,0.0
2022-08-30T19:20:00.000Z,0.0
2022-08-30T19:22:00.000Z,0.0
2022-08-30T19:24:00.000Z,0.0
2022-08-30T19:26:00.000Z,0.0
2022-08-30T19:28:00.000Z,0.0
2022-08-30T19:30:00.000Z,0.0
2022-08-30T19:32:00.000Z,0.0
2022-08-30T19:34:00.000Z,0.0
2022-08-30T19:36:00.000Z,0.0
2022-08-30T19:38:00.000Z,0.0
2022-08-30T19:40:00.000Z,0.0
2022-08-30T19:42:00.000Z,0.0
2022-08-30T19:44:00.000Z,0.0
2022-08-30T19:46:00.000Z,0.0
2022-08-30T19:48:00.000Z,0.0
2022-08-30T19:50:00.000Z,0.0
2022-08-30T19:52:00.000Z,0.0
2022-08-30T19:54:00.000Z,0.0
2022-08-30T19:56:00.000Z,0.0
2022-08-30T19:58:00.000Z,0.0
2022-08-30T20:00:00.000Z,0.0
2022-08-30T20:02:00.000Z,0.0
2022-08-30T20:04:00.000Z,0.0
2022-08-30T20:06:00.000Z,0.0
2022-08-30T20:08:00.000Z,0.0
2022-08-30T20:10:00.000Z,0.0
2022-08-30T20:12:00.000Z,0.0
2022-08-30T20:14:00.000Z,0.0
2022-08-30T20:16:00.000Z,0.0
2022-08-30T20:18:00.000Z,0.0
2022-08-30T20:20:00.000Z,0.0
2022-08-30T20:24:00.000Z,0.0
2022-08-30T20:26:00.000Z,0.0
2022-08-30T20:28:00.000Z,0.0
2022-08-30T20:30:00.000Z,0.0
2022-08-30T20:32:00.000Z,0.0
2022-08-30T20:34:00.000Z,0.0
2022-08-30T20:36:00.000Z,0.0
2022-08-30T20:38:00.000Z,0.0
2022-08-30T20:40:00.000Z,0.0
2022-08-30T20:42:00.000Z,0.0
2022-08-30T20:44:00.000Z,0.0
2022-08-30T20:46:00.000Z,0.0
2022-08-30T20:48:00.000Z,0.0
2022-08-30T20:50:00.000Z,0.0
2022-08-30T20:52:00.000Z,0.0
2022-08-30T20:54:00.000Z,0.0
2022-08-30T20:56:00.000Z,0.0
2022-08-30T20:58:00.000Z,0.0
2022-08-30T21:00:00.000Z,0.0
2022-08-30T21:02:00.000Z,0.0
2022-08-30T21:04:00.000Z,0.0
2022-08-30T21:06:00.000Z,0.0
2022-08-30T21:08:00.000Z,0.0
2022-08-30T21:10:00.000Z,0.0
2022-08-30T21:12:00.000Z,0.0
2022-08-30T21:14:00.000Z,0.0
2022-08-30T21:16:00.000Z,0.0
2022-08-30T21:18:00.000Z,0.0
2022-08-30T21:20:00.000Z,0.0
2022-08-30T21:22:00.000Z,0.0
2022-08-30T21:24:00.000Z,0.0
2022-08-30T21:26:00.000Z,0.0
2022-08-30T21:28:00.000Z,0.0
2022-08-30T21:30:00.000Z,0.0
2022-08-30T21:32:00.000Z,0.0
2022-08-30T21:34:00.000Z,0.0
2022-08-30T21:36:00.000Z,0.0
2022-08-30T21:38:00.000Z,0.0
2022-08-30T21:40:00.000Z,0.0
2022-08-30T21:42:00.000Z,0.0
2022-08-30T21:44:00.000Z,0.0
2022-08-30T21:46:00.000Z,0.0
2022-08-30T21:48:00.000Z,0.0
2022-08-30T21:50:00.000Z,0.0
2022-08-30T21:52:00.000Z,0.0
2022-08-30T21:54:00.000Z,0.0
2022-08-30T21:56:00.000Z,0.0
2022-08-30T21:58:00.000Z,0.0
2022-08-30T22:00:00.000Z,0.0
2022-08-30T22:02:00.000Z,0.0
2022-08-30T22:04:00.000Z,0.0
2022-08-30T22:06:00.000Z,0.0
2022-08-30T22:08:00.000Z,0.0
2022-08-30T22:10:00.000Z,0.0
2022-08-30T22:12:00.000Z,0.0
2022-08-30T22:14:00.000Z,0.0
2022-08-30T22:16:00.000Z,0.0
2022-08-30T22:18:00.000Z,0.0
2022-08-30T22:20:00.000Z,0.0
2022-08-30T22:22:00.000Z,0.0
2022-08-30T22:24:00.000Z,0.0
2022-08-30T22:26:00.000Z,0.0
2022-08-30T22:28:00.000Z,0.0
2022-08-30T22:30:00.000Z,0.0
2022-08-30T22:32:00.000Z,0.0
2022-08-30T22:34:00.000Z,0.0
2022-08-30T22:36:00.000Z,0.0
2022-08-30T22:38:00.000Z,0.0
2022-08-30T22:40:00.000Z,0.0
2022-08-30T22:42:00.000Z,0.0
2022-08-30T22:44:00.000Z,0.0
2022-08-30T22:46:00.000Z,0.0
2022-08-30T22:48:00.000Z,0.0
2022-08-30T22:50:00.000Z,0.0
2022-08-30T22:52:00.000Z,0.0
2022-08-30T22:54:00.000Z,0.0
2022-08-30T22:56:00.000Z,0.0
2022-08-30T22:58:00.000Z,0.0
2022-08-30T23:00:00.000Z,0.0
2022-08-30T23:02:00.000Z,0.0
2022-08-30T23:04:00.000Z,0.0
2022-08-30T23:06:00.000Z,0.0
2022-08-30T23:08:00.000Z,0.0
2022-08-30T23:10:00.000Z,0.0
2022-08-30T23:12:00.000Z,0.0
2022-08-30T23:14:00.000Z,0.0
2022-08-30T23:16:00.000Z,0.0
2022-08-30T23:18:00.000Z,0.0
2022-08-30T23:20:00.000Z,0.0
2022-08-30T23:22:00.000Z,0.0
2022-08-30T23:24:00.000Z,0.0
2022-08-30T23:26:00.000Z,0.0
2022-08-30T23:28:00.000Z,0.0
2022-08-30T23:30:00.000Z,0.0
2022-08-30T23:32:00.000Z,0.0
2022-08-30T23:34:00.000Z,0.0
2022-08-30T23:36:00.000Z,0.0
2022-08-30T23:38:00.000Z,0.0
2022-08-30T23:40:00.000Z,0.0
2022-08-30T23:42:00.000Z,0.0
2022-08-30T23:44:00.000Z,0.0
2022-08-30T23:46:00.000Z,0.0
2022-08-30T23:48:00.000Z,0.0
2022-08-30T23:50:00.000Z,0.0
2022-08-30T23:52:00.000Z,0.0
2022-08-30T23:54:00.000Z,0.0
2022-08-30T23:56:00.000Z,0.0
2022-08-30T23:58:00.000Z,0.0
